Time;durP1;ratioP1;P1;durP2;ratioP2;P2;SDS_P1;SDS_P2;PMS_P1;PMS_P2;Temp;Humidity;BMP_temperature;BMP_pressure;BME280_temperature;BME280_humidity;BME280_pressure;Samples;Min_cycle;Max_cycle;Signal;HPM_P1;HPM_P2
2024/01/14 00:01:20;;;;;;;;;;;1.70;99.90;;;;;;2621417;39;20349;-73
2024/01/14 00:03:50;;;;;;;;;;;2.00;99.90;;;;;;2622431;47;19941;-73
2024/01/14 00:06:20;;;;;;;;;;;1.70;99.90;;;;;;2622313;47;19958;-73
2024/01/14 00:08:50;;;;;;;;;;;1.70;99.90;;;;;;2622546;54;19946;-73
2024/01/14 00:11:22;;;;;;;;;;;1.70;99.90;;;;;;2622922;47;19963;-72
2024/01/14 00:13:51;;;;;;;;;;;1.70;99.90;;;;;;2619382;54;19954;-73
2024/01/14 00:16:21;;;;;;;;;;;1.70;99.90;;;;;;2616418;54;19942;-74
2024/01/14 00:18:51;;;;;;;;;;;1.70;99.90;;;;;;2615947;54;19958;-73
2024/01/14 00:21:21;;;;;;;;;;;1.70;99.90;;;;;;2617363;54;19950;-73
2024/01/14 00:23:51;;;;;;;;;;;1.80;99.90;;;;;;2614528;54;19946;-73
2024/01/14 00:26:24;;;;;;;;;;;2.50;99.90;;;;;;2612997;54;20051;-73
2024/01/14 00:28:55;;;;;;;;;;;1.80;99.90;;;;;;2617942;47;19939;-73
2024/01/14 00:31:25;;;;;;;;;;;1.80;99.90;;;;;;2615961;54;19969;-73
2024/01/14 00:33:54;;;;;;;;;;;1.80;99.90;;;;;;2617189;54;19938;-74
2024/01/14 00:36:24;;;;;;;;;;;1.90;99.90;;;;;;2616661;54;19946;-75
2024/01/14 00:38:54;;;;;;;;;;;1.80;99.90;;;;;;2615712;54;19946;-74
2024/01/14 00:41:26;;;;;;;;;;;1.80;99.90;;;;;;2614116;54;19999;-74
2024/01/14 00:43:56;;;;;;;;;;;1.80;99.90;;;;;;2615711;54;20068;-73
2024/01/14 00:46:26;;;;;;;;;;;1.80;99.90;;;;;;2614588;47;19934;-74
2024/01/14 00:48:55;;;;;;;;;;;1.80;99.90;;;;;;2616681;54;19946;-73
2024/01/14 00:51:25;;;;;;;;;;;1.70;99.90;;;;;;2615321;54;20029;-73
2024/01/14 00:53:55;;;;;;;;;;;1.80;99.90;;;;;;2616592;54;20038;-73
2024/01/14 00:56:27;;;;;;;;;;;1.80;99.90;;;;;;2614844;39;20436;-72
2024/01/14 00:58:57;;;;;;;;;;;2.60;99.90;;;;;;2615850;39;20659;-73
2024/01/14 01:01:26;;;;;;;;;;;1.80;99.90;;;;;;2616737;54;19991;-72
2024/01/14 01:03:56;;;;;;;;;;;1.80;99.90;;;;;;2615551;47;19938;-72
2024/01/14 01:06:26;;;;;;;;;;;1.80;99.90;;;;;;2615796;47;20059;-72
2024/01/14 01:08:56;;;;;;;;;;;1.80;99.90;;;;;;2617498;54;19999;-74
2024/01/14 01:11:28;;;;;;;;;;;1.70;99.90;;;;;;2616418;47;19943;-73
2024/01/14 01:13:58;;;;;;;;;;;1.60;99.90;;;;;;2616793;39;20427;-74
2024/01/14 01:16:27;;;;;;;;;;;1.60;99.90;;;;;;2617292;47;19938;-74
2024/01/14 01:18:57;;;;;;;;;;;1.70;99.90;;;;;;2616377;54;20033;-73
2024/01/14 01:21:27;;;;;;;;;;;1.70;99.90;;;;;;2617619;47;20333;-72
2024/01/14 01:23:57;;;;;;;;;;;1.70;99.90;;;;;;2615092;54;19954;-73
2024/01/14 01:26:29;;;;;;;;;;;1.70;99.90;;;;;;2614672;54;19953;-73
2024/01/14 01:28:59;;;;;;;;;;;1.70;99.90;;;;;;2616706;47;19935;-73
2024/01/14 01:31:31;;;;;;;;;;;1.60;99.90;;;;;;2616474;47;20512;-74
2024/01/14 01:34:14;;;;;;;;;;;1.60;99.90;;;;;;2616661;54;19954;-73
2024/01/14 01:36:44;;;;;;;;;;;1.60;99.90;;;;;;2615365;54;19942;-72
2024/01/14 01:39:14;;;;;;;;;;;1.70;99.90;;;;;;2615394;54;19938;-73
2024/01/14 01:41:46;;;;;;;;;;;1.70;99.90;;;;;;2615048;47;19987;-73
2024/01/14 01:44:17;;;;;;;;;;;1.70;99.90;;;;;;2618890;39;20456;-73
2024/01/14 01:46:46;;;;;;;;;;;1.70;99.90;;;;;;2616445;54;19949;-73
2024/01/14 01:49:16;;;;;;;;;;;1.70;99.90;;;;;;2617222;47;20042;-74
2024/01/14 01:51:47;;;;;;;;;;;1.70;99.90;;;;;;2616400;54;19963;-74
2024/01/14 01:54:18;;;;;;;;;;;1.70;99.90;;;;;;2616658;54;20415;-73
2024/01/14 01:56:51;;;;;;;;;;;1.70;99.90;;;;;;2615128;39;20460;-74
2024/01/14 01:59:21;;;;;;;;;;;1.60;99.90;;;;;;2619399;53;20022;-74
2024/01/14 02:01:51;;;;;;;;;;;1.60;99.90;;;;;;2620100;47;20545;-74
2024/01/14 02:04:21;;;;;;;;;;;1.60;99.90;;;;;;2621049;54;20505;-75
2024/01/14 02:06:51;;;;;;;;;;;1.60;99.90;;;;;;2621674;47;19954;-74
2024/01/14 02:09:21;;;;;;;;;;;1.70;99.90;;;;;;2621268;54;19994;-73
2024/01/14 02:11:53;;;;;;;;;;;1.70;99.90;;;;;;2616148;54;19947;-73
2024/01/14 02:14:23;;;;;;;;;;;1.70;99.90;;;;;;2615713;47;19946;-74
2024/01/14 02:16:52;;;;;;;;;;;1.80;99.90;;;;;;2615300;47;20472;-74
2024/01/14 02:19:22;;;;;;;;;;;1.70;99.90;;;;;;2616446;47;19938;-74
2024/01/14 02:21:59;;;;;;;;;;;1.70;99.90;;;;;;2616722;54;20646;-75
2024/01/14 02:24:32;;;;;;;;;;;1.70;99.90;;;;;;2623394;54;20003;-73
2024/01/14 02:27:03;;;;;;;;;;;1.30;99.90;;;;;;2623815;47;19939;-73
2024/01/14 02:29:33;;;;;;;;;;;2.70;99.90;;;;;;2620785;47;19950;-73
2024/01/14 02:32:02;;;;;;;;;;;1.70;99.90;;;;;;2616742;47;20465;-75
2024/01/14 02:34:32;;;;;;;;;;;1.70;99.90;;;;;;2616171;54;20587;-73
2024/01/14 02:37:02;;;;;;;;;;;1.70;99.90;;;;;;2614724;54;20043;-73
2024/01/14 02:39:35;;;;;;;;;;;1.60;99.90;;;;;;2616333;47;20380;-72
2024/01/14 02:42:05;;;;;;;;;;;1.60;99.90;;;;;;2616396;54;19943;-73
2024/01/14 02:44:35;;;;;;;;;;;1.50;99.90;;;;;;2616237;47;20461;-72
2024/01/14 02:47:04;;;;;;;;;;;0.90;99.90;;;;;;2614609;47;19935;-73
2024/01/14 02:49:34;;;;;;;;;;;1.40;99.90;;;;;;2616321;54;19946;-74
2024/01/14 02:52:04;;;;;;;;;;;1.50;99.90;;;;;;2616358;46;20408;-73
2024/01/14 02:54:36;;;;;;;;;;;1.50;99.90;;;;;;2614993;54;19958;-73
2024/01/14 02:57:05;;;;;;;;;;;1.50;99.90;;;;;;2615649;54;19962;-74
2024/01/14 02:59:35;;;;;;;;;;;1.60;99.90;;;;;;2616755;47;20018;-73
2024/01/14 03:02:05;;;;;;;;;;;1.60;99.90;;;;;;2614936;47;20037;-72
2024/01/14 03:04:34;;;;;;;;;;;1.70;99.90;;;;;;2618208;47;19953;-73
2024/01/14 03:07:04;;;;;;;;;;;1.90;99.90;;;;;;2621295;54;19939;-73
2024/01/14 03:09:36;;;;;;;;;;;1.70;99.90;;;;;;2622432;54;19950;-73
2024/01/14 03:12:06;;;;;;;;;;;1.70;99.90;;;;;;2620826;31;20429;-73
2024/01/14 03:14:36;;;;;;;;;;;1.70;99.90;;;;;;2615260;54;19954;-74
2024/01/14 03:17:06;;;;;;;;;;;1.70;99.90;;;;;;2619165;54;19954;-73
2024/01/14 03:19:36;;;;;;;;;;;1.70;99.90;;;;;;2616791;54;19946;-74
2024/01/14 03:22:06;;;;;;;;;;;1.70;99.90;;;;;;2616320;47;20025;-74
2024/01/14 03:24:38;;;;;;;;;;;0.70;99.90;;;;;;2615777;47;19946;-74
2024/01/14 03:27:07;;;;;;;;;;;1.80;99.90;;;;;;2614144;39;20362;-74
2024/01/14 03:29:37;;;;;;;;;;;1.70;99.90;;;;;;2617544;39;20353;-74
2024/01/14 03:32:07;;;;;;;;;;;1.60;99.90;;;;;;2619265;47;19949;-74
2024/01/14 03:34:36;;;;;;;;;;;1.70;99.90;;;;;;2622403;47;19954;-74
2024/01/14 03:37:06;;;;;;;;;;;1.70;99.90;;;;;;2621029;54;19950;-74
2024/01/14 03:39:38;;;;;;;;;;;1.70;99.90;;;;;;2617987;47;19954;-74
2024/01/14 03:42:08;;;;;;;;;;;1.70;99.90;;;;;;2615403;54;19939;-73
2024/01/14 03:44:38;;;;;;;;;;;1.70;99.90;;;;;;2617135;54;19938;-73
2024/01/14 03:47:08;;;;;;;;;;;1.60;99.90;;;;;;2615276;54;19947;-73
2024/01/14 03:49:38;;;;;;;;;;;1.60;99.90;;;;;;2614975;47;19950;-73
2024/01/14 03:52:08;;;;;;;;;;;1.60;99.90;;;;;;2615887;54;19945;-73
2024/01/14 03:54:40;;;;;;;;;;;1.60;99.90;;;;;;2615090;54;19939;-73
2024/01/14 03:57:10;;;;;;;;;;;1.60;99.90;;;;;;2614849;54;19942;-73
2024/01/14 03:59:40;;;;;;;;;;;1.70;99.90;;;;;;2613266;54;20056;-73
2024/01/14 04:02:09;;;;;;;;;;;1.70;99.90;;;;;;2616114;47;19935;-73
2024/01/14 04:04:39;;;;;;;;;;;1.70;99.90;;;;;;2616334;47;19973;-73
2024/01/14 04:07:09;;;;;;;;;;;1.70;99.90;;;;;;2616702;47;19953;-73
2024/01/14 04:09:41;;;;;;;;;;;1.70;99.90;;;;;;2615828;54;19945;-73
2024/01/14 04:12:11;;;;;;;;;;;1.60;99.90;;;;;;2615851;47;19934;-73
2024/01/14 04:14:40;;;;;;;;;;;1.60;99.90;;;;;;2616006;54;19946;-73
2024/01/14 04:17:11;;;;;;;;;;;1.60;99.90;;;;;;2615899;47;19939;-73
2024/01/14 04:19:41;;;;;;;;;;;1.60;99.90;;;;;;2616261;54;19939;-73
2024/01/14 04:22:10;;;;;;;;;;;1.60;99.90;;;;;;2617270;47;19942;-74
2024/01/14 04:24:44;;;;;;;;;;;1.60;99.90;;;;;;2616041;54;19972;-74
2024/01/14 04:27:14;;;;;;;;;;;1.60;99.90;;;;;;2614777;47;19977;-74
2024/01/14 04:29:43;;;;;;;;;;;1.60;99.90;;;;;;2613717;54;19995;-73
2024/01/14 04:32:13;;;;;;;;;;;1.60;99.90;;;;;;2615531;47;19938;-73
2024/01/14 04:34:43;;;;;;;;;;;1.60;99.90;;;;;;2616354;54;20457;-72
2024/01/14 04:37:13;;;;;;;;;;;1.60;99.90;;;;;;2616454;54;19947;-73
2024/01/14 04:39:45;;;;;;;;;;;1.60;99.90;;;;;;2614018;54;19946;-73
2024/01/14 04:42:15;;;;;;;;;;;1.60;99.90;;;;;;2616072;47;19942;-73
2024/01/14 04:44:44;;;;;;;;;;;1.60;99.90;;;;;;2614570;47;19951;-73
2024/01/14 04:47:14;;;;;;;;;;;1.70;99.90;;;;;;2615555;54;19942;-73
2024/01/14 04:49:44;;;;;;;;;;;1.60;99.90;;;;;;2614166;54;19946;-73
2024/01/14 04:52:14;;;;;;;;;;;1.60;99.90;;;;;;2614782;54;20018;-73
2024/01/14 04:54:46;;;;;;;;;;;1.60;99.90;;;;;;2615562;54;19938;-73
2024/01/14 04:57:15;;;;;;;;;;;1.60;99.90;;;;;;2614950;47;19939;-73
2024/01/14 04:59:46;;;;;;;;;;;1.60;99.90;;;;;;2616706;47;19947;-73
2024/01/14 05:02:16;;;;;;;;;;;1.60;99.90;;;;;;2615994;54;19945;-74
2024/01/14 05:04:45;;;;;;;;;;;1.50;99.90;;;;;;2615209;54;19951;-73
2024/01/14 05:07:15;;;;;;;;;;;1.50;99.90;;;;;;2615600;54;19998;-74
2024/01/14 05:09:47;;;;;;;;;;;1.50;99.90;;;;;;2615523;54;19938;-74
2024/01/14 05:12:17;;;;;;;;;;;1.50;99.90;;;;;;2616074;49;19947;-74
2024/01/14 05:14:46;;;;;;;;;;;1.50;99.90;;;;;;2612952;47;19947;-74
2024/01/14 05:17:16;;;;;;;;;;;1.50;99.90;;;;;;2614402;54;19951;-73
2024/01/14 05:19:46;;;;;;;;;;;1.40;99.90;;;;;;2615000;54;20377;-74
2024/01/14 05:22:16;;;;;;;;;;;1.50;99.90;;;;;;2613601;54;19975;-73
2024/01/14 05:24:50;;;;;;;;;;;1.40;99.90;;;;;;2615486;47;19945;-73
2024/01/14 05:27:19;;;;;;;;;;;1.40;99.90;;;;;;2614493;47;19950;-74
2024/01/14 05:29:49;;;;;;;;;;;1.40;99.90;;;;;;2616349;54;19946;-73
2024/01/14 05:32:19;;;;;;;;;;;1.40;99.90;;;;;;2617454;54;20524;-74
2024/01/14 05:34:49;;;;;;;;;;;1.40;99.90;;;;;;2617708;51;19938;-74
2024/01/14 05:37:18;;;;;;;;;;;1.40;99.90;;;;;;2614963;54;19952;-74
2024/01/14 05:39:51;;;;;;;;;;;1.50;99.90;;;;;;2615760;39;20558;-74
2024/01/14 05:42:20;;;;;;;;;;;1.50;99.90;;;;;;2615263;54;19943;-73
2024/01/14 05:44:50;;;;;;;;;;;1.50;99.90;;;;;;2614020;47;19997;-74
2024/01/14 05:47:20;;;;;;;;;;;1.50;99.90;;;;;;2614245;54;20702;-74
2024/01/14 05:49:49;;;;;;;;;;;1.50;99.90;;;;;;2615127;51;19963;-74
2024/01/14 05:52:20;;;;;;;;;;;1.50;99.90;;;;;;2615494;47;19939;-73
2024/01/14 05:54:52;;;;;;;;;;;1.40;99.90;;;;;;2614471;54;19946;-73
2024/01/14 05:57:22;;;;;;;;;;;1.40;99.90;;;;;;2616490;54;20454;-74
2024/01/14 05:59:52;;;;;;;;;;;1.30;99.90;;;;;;2613768;39;20445;-74
2024/01/14 06:02:21;;;;;;;;;;;1.30;99.90;;;;;;2614945;47;20804;-73
2024/01/14 06:04:51;;;;;;;;;;;1.30;99.90;;;;;;2616161;54;19947;-74
2024/01/14 06:07:21;;;;;;;;;;;1.20;99.90;;;;;;2615433;54;20030;-74
2024/01/14 06:09:53;;;;;;;;;;;1.20;99.90;;;;;;2615078;54;19938;-74
2024/01/14 06:12:23;;;;;;;;;;;1.20;99.90;;;;;;2614951;47;19938;-74
2024/01/14 06:14:52;;;;;;;;;;;1.20;99.90;;;;;;2620524;39;20350;-74
2024/01/14 06:17:22;;;;;;;;;;;1.20;99.90;;;;;;2619068;47;19975;-74
2024/01/14 06:19:52;;;;;;;;;;;1.10;99.90;;;;;;2618592;54;19935;-74
2024/01/14 06:22:21;;;;;;;;;;;1.20;99.90;;;;;;2617930;54;19946;-74
2024/01/14 06:24:53;;;;;;;;;;;1.20;99.90;;;;;;2615260;47;19954;-73
2024/01/14 06:27:23;;;;;;;;;;;1.30;99.90;;;;;;2614500;47;19946;-74
2024/01/14 06:29:53;;;;;;;;;;;1.20;99.90;;;;;;2616495;54;20030;-74
2024/01/14 06:32:22;;;;;;;;;;;1.30;99.90;;;;;;2615358;54;19947;-73
2024/01/14 06:34:52;;;;;;;;;;;1.40;99.90;;;;;;2615861;54;20042;-74
2024/01/14 06:37:22;;;;;;;;;;;1.40;99.90;;;;;;2616616;54;19954;-73
2024/01/14 06:39:54;;;;;;;;;;;1.40;99.90;;;;;;2614077;54;19946;-73
2024/01/14 06:42:24;;;;;;;;;;;1.50;99.90;;;;;;2622028;54;20002;-74
2024/01/14 06:44:54;;;;;;;;;;;1.40;99.90;;;;;;2619158;54;19942;-75
2024/01/14 06:47:23;;;;;;;;;;;1.60;99.90;;;;;;2620013;54;19945;-73
2024/01/14 06:49:54;;;;;;;;;;;2.50;99.90;;;;;;2618488;54;19947;-74
2024/01/14 06:52:39;;;;;;;;;;;1.50;99.90;;;;;;2619152;54;19947;-74
2024/01/14 06:55:13;;;;;;;;;;;1.50;99.90;;;;;;2616894;47;19957;-75
2024/01/14 06:57:43;;;;;;;;;;;1.50;99.90;;;;;;2623028;47;19951;-75
2024/01/14 07:00:13;;;;;;;;;;;1.50;99.90;;;;;;2627049;47;19957;-77
2024/01/14 07:02:43;;;;;;;;;;;1.50;99.90;;;;;;2626031;39;20350;-74
2024/01/14 07:05:13;;;;;;;;;;;1.50;99.90;;;;;;2624443;47;19951;-75
2024/01/14 07:07:44;;;;;;;;;;;1.50;99.90;;;;;;2625596;47;19986;-75
2024/01/14 07:10:16;;;;;;;;;;;1.50;99.90;;;;;;2626962;47;19971;-77
2024/01/14 07:12:46;;;;;;;;;;;1.60;99.90;;;;;;2625863;54;19953;-75
2024/01/14 07:15:16;;;;;;;;;;;1.50;99.90;;;;;;2618370;39;20341;-75
2024/01/14 07:17:45;;;;;;;;;;;1.50;99.90;;;;;;2617442;47;19950;-75
2024/01/14 07:20:27;;;;;;;;;;;1.50;99.90;;;;;;2617217;54;19970;-75
2024/01/14 07:22:57;;;;;;;;;;;1.50;99.90;;;;;;2618176;54;19976;-74
2024/01/14 07:25:50;;;;;;;;;;;1.40;99.90;;;;;;2615552;47;19950;-74
2024/01/14 07:28:20;;;;;;;;;;;1.40;99.90;;;;;;2616339;47;19950;-74
2024/01/14 07:30:49;;;;;;;;;;;1.40;99.90;;;;;;2617573;47;19953;-75
2024/01/14 07:33:19;;;;;;;;;;;1.40;99.90;;;;;;2617896;39;20379;-76
2024/01/14 07:35:49;;;;;;;;;;;1.20;99.90;;;;;;2620620;54;19979;-80
2024/01/14 07:38:24;;;;;;;;;;;1.40;99.90;;;;;;2617425;54;20486;-79
2024/01/14 07:40:59;;;;;;;;;;;1.50;99.90;;;;;;2618181;54;19939;-77
2024/01/14 07:43:29;;;;;;;;;;;1.40;99.90;;;;;;2619446;47;19946;-77
2024/01/14 07:45:59;;;;;;;;;;;1.40;99.90;;;;;;2619458;46;19942;-76
2024/01/14 07:48:29;;;;;;;;;;;2.20;99.90;;;;;;2621435;54;19950;-78
2024/01/14 07:50:59;;;;;;;;;;;1.40;99.90;;;;;;2621262;39;20365;-75
2024/01/14 07:53:28;;;;;;;;;;;1.40;99.90;;;;;;2625218;47;19938;-78
2024/01/14 07:56:01;;;;;;;;;;;1.50;99.90;;;;;;2620893;47;19958;-77
2024/01/14 07:58:30;;;;;;;;;;;1.40;99.90;;;;;;2625805;54;19939;-78
2024/01/14 08:01:00;;;;;;;;;;;1.40;99.90;;;;;;2623517;47;20447;-79
2024/01/14 08:03:32;;;;;;;;;;;1.50;99.90;;;;;;2627320;54;20010;-79
2024/01/14 08:06:02;;;;;;;;;;;1.50;99.90;;;;;;2626814;47;19939;-80
2024/01/14 08:08:32;;;;;;;;;;;1.60;99.90;;;;;;2628716;47;19950;-78
2024/01/14 08:11:04;;;;;;;;;;;1.60;99.90;;;;;;2624776;47;19953;-78
2024/01/14 08:13:34;;;;;;;;;;;2.60;99.90;;;;;;2617308;54;20041;-77
2024/01/14 08:16:04;;;;;;;;;;;1.60;99.90;;;;;;2615455;54;20034;-76
2024/01/14 08:18:34;;;;;;;;;;;1.60;99.90;;;;;;2615862;54;19947;-77
2024/01/14 08:21:04;;;;;;;;;;;1.60;99.90;;;;;;2615184;54;19935;-79
2024/01/14 08:23:34;;;;;;;;;;;1.60;99.90;;;;;;2621746;47;19946;-77
2024/01/14 08:26:06;;;;;;;;;;;1.70;99.90;;;;;;2616821;54;19949;-77
2024/01/14 08:28:37;;;;;;;;;;;1.70;99.90;;;;;;2594377;47;19954;-77
2024/01/14 08:31:07;;;;;;;;;;;1.80;99.90;;;;;;2601967;47;19947;-77
2024/01/14 08:33:37;;;;;;;;;;;1.70;99.90;;;;;;2607883;51;19958;-77
2024/01/14 08:36:07;;;;;;;;;;;0.80;99.90;;;;;;2606486;47;19950;-75
2024/01/14 08:38:38;;;;;;;;;;;1.70;99.90;;;;;;2601556;47;19958;-74
2024/01/14 08:41:10;;;;;;;;;;;1.60;99.90;;;;;;2598702;47;19953;-75
2024/01/14 08:43:40;;;;;;;;;;;1.60;99.90;;;;;;2597475;47;19961;-74
2024/01/14 08:46:10;;;;;;;;;;;1.60;99.90;;;;;;2596910;54;19958;-77
2024/01/14 08:48:40;;;;;;;;;;;1.70;99.90;;;;;;2594859;54;19950;-76
2024/01/14 08:51:12;;;;;;;;;;;1.70;99.90;;;;;;2598126;47;19946;-75
2024/01/14 08:53:42;;;;;;;;;;;1.70;99.90;;;;;;2600807;47;20442;-77
2024/01/14 08:56:14;;;;;;;;;;;2.20;99.90;;;;;;2598080;51;20041;-77
2024/01/14 08:58:44;;;;;;;;;;;1.60;99.90;;;;;;2598160;54;19953;-77
2024/01/14 09:01:13;;;;;;;;;;;1.60;99.90;;;;;;2599245;47;19947;-76
2024/01/14 09:03:43;;;;;;;;;;;1.70;99.90;;;;;;2598454;54;19950;-77
2024/01/14 09:06:13;;;;;;;;;;;1.70;99.90;;;;;;2598503;54;20161;-77
2024/01/14 09:08:43;;;;;;;;;;;1.60;99.90;;;;;;2598735;54;20072;-76
2024/01/14 09:11:15;;;;;;;;;;;1.70;99.90;;;;;;2596349;47;19951;-78
2024/01/14 09:13:45;;;;;;;;;;;1.70;99.90;;;;;;2599461;47;20012;-80
2024/01/14 09:16:15;;;;;;;;;;;1.80;99.90;;;;;;2607009;47;20417;-79
2024/01/14 09:18:44;;;;;;;;;;;3.10;99.90;;;;;;2607361;54;19954;-80
2024/01/14 09:21:14;;;;;;;;;;;1.80;99.90;;;;;;2608242;47;19947;-77
2024/01/14 09:23:44;;;;;;;;;;;3.10;99.90;;;;;;2617087;47;19996;-75
2024/01/14 09:26:17;;;;;;;;;;;1.70;99.90;;;;;;2617222;39;20443;-74
2024/01/14 09:28:46;;;;;;;;;;;1.70;99.90;;;;;;2617959;54;19939;-76
2024/01/14 09:31:16;;;;;;;;;;;1.70;99.90;;;;;;2615620;47;19953;-76
2024/01/14 09:33:46;;;;;;;;;;;1.70;99.90;;;;;;2618170;54;19946;-76
2024/01/14 09:36:16;;;;;;;;;;;1.70;99.90;;;;;;2617739;54;19946;-77
2024/01/14 09:38:45;;;;;;;;;;;2.50;99.90;;;;;;2620210;46;21748;-76
2024/01/14 09:41:22;;;;;;;;;;;1.70;99.90;;;;;;2625123;54;19946;-76
2024/01/14 09:43:53;;;;;;;;;;;2.50;99.90;;;;;;2624355;54;19949;-76
2024/01/14 09:46:24;;;;;;;;;;;1.80;99.90;;;;;;2623751;54;19995;-77
2024/01/14 09:48:54;;;;;;;;;;;1.80;99.90;;;;;;2620693;47;19951;-76
2024/01/14 09:51:29;;;;;;;;;;;1.80;99.90;;;;;;2616766;47;19997;-75
2024/01/14 09:54:00;;;;;;;;;;;1.80;99.90;;;;;;2616453;54;19946;-76
2024/01/14 09:56:33;;;;;;;;;;;1.90;99.90;;;;;;2615431;47;19947;-75
2024/01/14 09:59:04;;;;;;;;;;;1.90;99.90;;;;;;2612648;54;19951;-74
2024/01/14 10:01:33;;;;;;;;;;;2.00;99.90;;;;;;2613909;47;20056;-75
2024/01/14 10:04:05;;;;;;;;;;;2.10;99.90;;;;;;2616566;49;19959;-74
2024/01/14 10:06:35;;;;;;;;;;;2.20;99.90;;;;;;2618465;47;19942;-74
2024/01/14 10:09:05;;;;;;;;;;;2.30;99.90;;;;;;2615580;47;19950;-65
2024/01/14 10:11:37;;;;;;;;;;;2.40;99.90;;;;;;2615463;54;20490;-65
2024/01/14 10:14:07;;;;;;;;;;;2.30;99.90;;;;;;2615640;47;19942;-64
2024/01/14 10:16:38;;;;;;;;;;;2.40;99.90;;;;;;2615168;39;20354;-64
2024/01/14 10:19:23;;;;;;;;;;;2.50;99.90;;;;;;2615632;54;19977;-65
2024/01/14 10:21:54;;;;;;;;;;;2.50;99.90;;;;;;2614743;47;20506;-65
2024/01/14 10:24:44;;;;;;;;;;;2.50;99.90;;;;;;2615551;54;19946;-81
2024/01/14 10:27:18;;;;;;;;;;;2.10;99.90;;;;;;2627167;54;19946;-79
2024/01/14 10:30:06;;;;;;;;;;;2.70;99.90;;;;;;2624078;54;19951;-76
2024/01/14 10:32:36;;;;;;;;;;;2.60;99.90;;;;;;2616424;47;19950;-75
2024/01/14 10:35:26;;;;;;;;;;;2.70;99.90;;;;;;2616924;39;20260;-76
2024/01/14 10:37:58;;;;;;;;;;;2.60;99.90;;;;;;2618096;47;19946;-74
2024/01/14 10:40:31;;;;;;;;;;;2.50;99.90;;;;;;2616506;46;19962;-72
2024/01/14 10:43:04;;;;;;;;;;;2.50;99.90;;;;;;2618019;54;20078;-73
2024/01/14 10:45:33;;;;;;;;;;;2.50;99.90;;;;;;2617917;39;20360;-72
2024/01/14 10:48:07;;;;;;;;;;;2.40;99.90;;;;;;2624439;47;20041;-73
2024/01/14 10:50:37;;;;;;;;;;;3.30;99.90;;;;;;2624632;39;20449;-73
2024/01/14 10:53:17;;;;;;;;;;;2.50;99.90;;;;;;2624551;47;19945;-75
2024/01/14 10:55:49;;;;;;;;;;;2.50;99.90;;;;;;2623634;54;21685;-75
2024/01/14 10:58:26;;;;;;;;;;;2.40;99.90;;;;;;2622212;47;19943;-75
2024/01/14 11:01:00;;;;;;;;;;;2.40;99.90;;;;;;2618324;54;19946;-76
2024/01/14 11:03:30;;;;;;;;;;;2.50;99.90;;;;;;2617422;47;19954;-74
2024/01/14 11:06:00;;;;;;;;;;;2.50;99.90;;;;;;2616026;47;19961;-75
2024/01/14 11:08:30;;;;;;;;;;;2.50;99.90;;;;;;2616186;54;19965;-74
2024/01/14 11:11:00;;;;;;;;;;;2.60;99.90;;;;;;2617857;54;19952;-74
2024/01/14 11:13:35;;;;;;;;;;;2.60;99.90;;;;;;2616816;47;19939;-76
2024/01/14 11:16:09;;;;;;;;;;;2.60;99.90;;;;;;2616835;47;19970;-75
2024/01/14 11:18:41;;;;;;;;;;;2.60;99.90;;;;;;2618119;50;20002;-76
2024/01/14 11:21:22;;;;;;;;;;;2.60;99.90;;;;;;2616360;47;19953;-78
2024/01/14 11:24:12;;;;;;;;;;;2.60;99.90;;;;;;2616277;54;19950;-75
2024/01/14 11:26:41;;;;;;;;;;;2.60;99.90;;;;;;2615301;47;20324;-76
2024/01/14 11:29:14;;;;;;;;;;;2.70;99.90;;;;;;2621778;47;19983;-76
2024/01/14 11:31:59;;;;;;;;;;;3.10;99.90;;;;;;2628100;31;20458;-76
2024/01/14 11:34:44;;;;;;;;;;;2.60;99.90;;;;;;2625864;47;20535;-77
2024/01/14 11:37:34;;;;;;;;;;;2.70;99.90;;;;;;2621566;47;19935;-78
2024/01/14 11:40:11;;;;;;;;;;;2.60;99.90;;;;;;2617904;39;20383;-76
2024/01/14 11:42:45;;;;;;;;;;;2.60;99.90;;;;;;2622061;47;19946;-75
2024/01/14 11:45:33;;;;;;;;;;;3.10;99.90;;;;;;2620486;54;19942;-76
2024/01/14 11:48:07;;;;;;;;;;;3.30;99.90;;;;;;2623820;47;20474;-75
2024/01/14 11:50:38;;;;;;;;;;;2.60;99.90;;;;;;2618583;39;20358;-76
2024/01/14 11:53:10;;;;;;;;;;;2.60;99.90;;;;;;2619913;54;19953;-76
2024/01/14 11:55:41;;;;;;;;;;;2.50;99.90;;;;;;2619531;47;19958;-77
2024/01/14 11:58:13;;;;;;;;;;;2.60;99.90;;;;;;2617740;39;20366;-76
2024/01/14 12:00:44;;;;;;;;;;;2.80;99.90;;;;;;2616043;47;20449;-76
2024/01/14 12:03:19;;;;;;;;;;;0.50;99.90;;;;;;2615770;54;19958;-76
2024/01/14 12:05:50;;;;;;;;;;;3.00;99.90;;;;;;2615544;54;19954;-76
2024/01/14 12:08:21;;;;;;;;;;;2.70;99.90;;;;;;2615577;54;19958;-72
2024/01/14 12:10:50;;;;;;;;;;;2.70;99.90;;;;;;2614487;54;19954;-75
2024/01/14 12:13:20;;;;;;;;;;;2.60;99.90;;;;;;2619320;54;20005;-74
2024/01/14 12:15:50;;;;;;;;;;;2.70;99.90;;;;;;2622474;54;19941;-77
2024/01/14 12:18:43;;;;;;;;;;;2.70;99.90;;;;;;2622984;47;19954;-75
2024/01/14 12:21:17;;;;;;;;;;;3.00;99.90;;;;;;2623296;54;20445;-75
2024/01/14 12:24:01;;;;;;;;;;;3.60;99.90;;;;;;2616800;47;19946;-75
2024/01/14 12:26:30;;;;;;;;;;;2.90;99.90;;;;;;2616285;54;19970;-75
2024/01/14 12:29:00;;;;;;;;;;;2.90;99.90;;;;;;2615816;47;19950;-74
2024/01/14 12:31:34;;;;;;;;;;;2.90;99.90;;;;;;2616424;54;19955;-74
2024/01/14 12:34:27;;;;;;;;;;;2.90;99.90;;;;;;2616038;47;20026;-74
2024/01/14 12:36:57;;;;;;;;;;;2.90;99.90;;;;;;2616585;47;19953;-74
2024/01/14 12:39:26;;;;;;;;;;;2.90;99.90;;;;;;2615692;54;19972;-75
2024/01/14 12:41:56;;;;;;;;;;;2.90;99.90;;;;;;2616672;47;20026;-75
2024/01/14 12:44:27;;;;;;;;;;;2.80;99.90;;;;;;2615760;54;19935;-74
2024/01/14 12:47:05;;;;;;;;;;;3.40;99.90;;;;;;2615443;47;19939;-74
2024/01/14 12:49:37;;;;;;;;;;;2.80;99.90;;;;;;2616456;47;20068;-74
2024/01/14 12:52:08;;;;;;;;;;;2.80;99.90;;;;;;2616369;47;19952;-74
2024/01/14 12:54:38;;;;;;;;;;;2.70;99.90;;;;;;2614700;47;19947;-74
2024/01/14 12:57:08;;;;;;;;;;;2.70;99.90;;;;;;2615554;47;19978;-75
2024/01/14 12:59:51;;;;;;;;;;;2.70;99.90;;;;;;2616872;47;20059;-73
2024/01/14 13:02:21;;;;;;;;;;;2.70;99.90;;;;;;2616453;47;19973;-74
2024/01/14 13:04:55;;;;;;;;;;;2.70;99.90;;;;;;2618445;39;20136;-76
2024/01/14 13:07:24;;;;;;;;;;;3.40;99.90;;;;;;2621728;54;20049;-75
2024/01/14 13:09:57;;;;;;;;;;;2.60;99.90;;;;;;2623817;47;19945;-78
2024/01/14 13:12:26;;;;;;;;;;;2.60;99.90;;;;;;2624443;47;19958;-78
2024/01/14 13:14:56;;;;;;;;;;;2.70;99.90;;;;;;2624207;47;19986;-75
2024/01/14 13:17:26;;;;;;;;;;;2.70;99.90;;;;;;2618926;54;19990;-76
2024/01/14 13:19:59;;;;;;;;;;;2.70;99.90;;;;;;2617049;47;19955;-78
2024/01/14 13:22:29;;;;;;;;;;;2.70;99.90;;;;;;2619074;31;20426;-77
2024/01/14 13:24:59;;;;;;;;;;;2.70;99.90;;;;;;2621695;54;19946;-75
2024/01/14 13:27:29;;;;;;;;;;;2.70;99.90;;;;;;2621469;39;20421;-78
2024/01/14 13:29:59;;;;;;;;;;;2.70;99.90;;;;;;2617830;54;19946;-77
2024/01/14 13:32:30;;;;;;;;;;;2.80;99.90;;;;;;2618221;54;19977;-76
2024/01/14 13:35:04;;;;;;;;;;;2.70;99.90;;;;;;2621100;47;19946;-75
2024/01/14 13:37:34;;;;;;;;;;;2.70;99.90;;;;;;2623940;47;19947;-76
2024/01/14 13:40:05;;;;;;;;;;;2.70;99.90;;;;;;2623609;54;19942;-77
2024/01/14 13:42:35;;;;;;;;;;;2.60;99.90;;;;;;2620594;47;19939;-76
2024/01/14 13:45:09;;;;;;;;;;;2.70;99.90;;;;;;2617961;47;19950;-78
2024/01/14 13:47:39;;;;;;;;;;;2.70;99.90;;;;;;2618485;31;20435;-81
2024/01/14 13:50:12;;;;;;;;;;;2.70;99.90;;;;;;2617820;54;19958;-76
2024/01/14 13:52:42;;;;;;;;;;;2.70;99.90;;;;;;2617084;47;19950;-75
2024/01/14 13:55:11;;;;;;;;;;;2.70;99.90;;;;;;2617580;54;19939;-81
2024/01/14 13:57:41;;;;;;;;;;;2.70;99.90;;;;;;2617202;47;19951;-75
2024/01/14 14:00:11;;;;;;;;;;;2.70;99.90;;;;;;2615670;47;20103;-77
2024/01/14 14:02:41;;;;;;;;;;;2.60;99.90;;;;;;2619269;54;21391;-77
2024/01/14 14:05:14;;;;;;;;;;;2.60;99.90;;;;;;2618804;51;19951;-77
2024/01/14 14:07:44;;;;;;;;;;;2.80;99.90;;;;;;2619023;47;20437;-77
2024/01/14 14:10:14;;;;;;;;;;;2.50;99.90;;;;;;2618653;54;20591;-79
2024/01/14 14:12:43;;;;;;;;;;;2.50;99.90;;;;;;2619504;47;20046;-77
2024/01/14 14:15:13;;;;;;;;;;;2.50;99.90;;;;;;2620691;47;19938;-78
2024/01/14 14:17:43;;;;;;;;;;;2.40;99.90;;;;;;2618954;54;19942;-80
2024/01/14 14:20:21;;;;;;;;;;;2.40;99.90;;;;;;2618777;54;19972;-76
2024/01/14 14:22:51;;;;;;;;;;;2.30;99.90;;;;;;2620550;47;19977;-77
2024/01/14 14:25:21;;;;;;;;;;;2.30;99.90;;;;;;2616357;47;19957;-77
2024/01/14 14:27:51;;;;;;;;;;;2.30;99.90;;;;;;2618057;54;19946;-80
2024/01/14 14:30:23;;;;;;;;;;;2.20;99.90;;;;;;2617289;47;19958;-78
2024/01/14 14:32:53;;;;;;;;;;;2.20;99.90;;;;;;2618379;47;19946;-77
2024/01/14 14:35:25;;;;;;;;;;;2.20;99.90;;;;;;2616664;47;19939;-77
2024/01/14 14:37:55;;;;;;;;;;;2.20;99.90;;;;;;2618563;54;19946;-76
2024/01/14 14:40:24;;;;;;;;;;;2.20;99.90;;;;;;2621378;54;19953;-76
2024/01/14 14:42:55;;;;;;;;;;;2.10;99.90;;;;;;2623610;54;19953;-77
2024/01/14 14:45:24;;;;;;;;;;;2.10;99.90;;;;;;2622912;54;19947;-77
2024/01/14 14:47:54;;;;;;;;;;;2.10;99.90;;;;;;2623533;54;19947;-76
2024/01/14 14:50:27;;;;;;;;;;;2.10;99.90;;;;;;2624412;47;20030;-76
2024/01/14 14:52:56;;;;;;;;;;;2.10;99.90;;;;;;2621775;39;20436;-77
2024/01/14 14:55:26;;;;;;;;;;;2.00;99.90;;;;;;2615947;47;19950;-76